createdAt,value
2023-05-05T00:00:45.100Z,-2.91
2023-05-05T00:01:45.135Z,-2.87
2023-05-05T00:02:45.175Z,-2.89
2023-05-05T00:03:45.238Z,-2.88
2023-05-05T00:04:45.299Z,-2.91
2023-05-05T00:05:45.205Z,-2.96
2023-05-05T00:06:47.324Z,-2.91
2023-05-05T00:07:45.220Z,-2.88
2023-05-05T00:08:45.198Z,-2.97
2023-05-05T00:09:45.207Z,-2.92
2023-05-05T00:10:45.700Z,-2.97
2023-05-05T00:11:45.274Z,-2.91
2023-05-05T00:12:45.326Z,-2.92
2023-05-05T00:13:45.373Z,-2.92
2023-05-05T00:14:45.281Z,-2.92
2023-05-05T00:15:46.425Z,-3.04
2023-05-05T00:16:45.592Z,-3.01
2023-05-05T00:17:45.613Z,-2.96
2023-05-05T00:18:45.390Z,-2.91
2023-05-05T00:19:45.424Z,-2.98
2023-05-05T00:20:46.061Z,-2.92
2023-05-05T00:21:45.637Z,-3
2023-05-05T00:22:45.440Z,-2.96
2023-05-05T00:23:45.417Z,-3.06
2023-05-05T00:24:45.705Z,-3.1
2023-05-05T00:25:45.592Z,-3.07
2023-05-05T00:26:45.598Z,-3.07
2023-05-05T00:27:45.524Z,-2.97
2023-05-05T00:28:45.518Z,-2.99
2023-05-05T00:29:45.484Z,-2.94
2023-05-05T00:30:45.498Z,-2.94
2023-05-05T00:31:45.591Z,-2.98
2023-05-05T00:32:47.354Z,-2.93
2023-05-05T00:33:45.514Z,-2.96
2023-05-05T00:34:45.565Z,-2.98
2023-05-05T00:35:45.788Z,-3
2023-05-05T00:36:45.785Z,-3.06
2023-05-05T00:37:45.631Z,-3.05
2023-05-05T00:38:45.668Z,-3.05
2023-05-05T00:39:45.633Z,-3.04
2023-05-05T00:40:45.881Z,-3.11
2023-05-05T00:41:45.676Z,-3.07
2023-05-05T00:42:46.834Z,-3.05
2023-05-05T00:43:45.704Z,-3.12
2023-05-05T00:44:45.728Z,-3.13
2023-05-05T00:45:46.037Z,-3.18
2023-05-05T00:46:45.940Z,-3.12
2023-05-05T00:47:49.340Z,-3.09
2023-05-05T00:48:46.251Z,-3.13
2023-05-05T00:49:46.370Z,-3.22
2023-05-05T00:50:46.204Z,-3.15
2023-05-05T00:51:46.234Z,-3.16
2023-05-05T00:52:46.261Z,-2.99
2023-05-05T00:53:47.138Z,-3.01
2023-05-05T00:54:46.865Z,-2.95
2023-05-05T00:55:46.290Z,-2.89
2023-05-05T00:56:46.966Z,-2.97
2023-05-05T00:57:46.963Z,-3.02
2023-05-05T00:58:46.380Z,-3.11
2023-05-05T00:59:46.642Z,-3.07
2023-05-05T01:00:46.320Z,-3.15
2023-05-05T01:01:46.473Z,-3.15
2023-05-05T01:02:46.480Z,-3.2
2023-05-05T01:03:46.525Z,-3.15
2023-05-05T01:04:46.397Z,-3.19
2023-05-05T01:05:56.582Z,-3.1
2023-05-05T01:06:53.785Z,-3.03
2023-05-05T01:08:02.458Z,-2.93
2023-05-05T01:11:05.427Z,-3.01
2023-05-05T01:14:16.449Z,-2.89
2023-05-05T01:17:18.430Z,-2.89
2023-05-05T01:18:24.331Z,-2.88
2023-05-05T01:21:31.993Z,-2.98
2023-05-05T01:27:49.622Z,-3.13
2023-05-05T01:33:03.426Z,-3.16
2023-05-05T01:34:03.970Z,-3.21
2023-05-05T01:36:10.226Z,-3.28
2023-05-05T01:38:11.907Z,-3.43
2023-05-05T01:39:12.512Z,-3.36
2023-05-05T01:40:10.255Z,-3.38
2023-05-05T01:42:13.966Z,-3.22
2023-05-05T01:43:15.218Z,-3.3
2023-05-05T01:44:14.577Z,-3.31
2023-05-05T01:45:14.494Z,-3.29
2023-05-05T01:46:13.827Z,-3.27
2023-05-05T01:47:15.679Z,-3.34
2023-05-05T01:48:16.272Z,-3.32
2023-05-05T01:49:13.690Z,-3.36
2023-05-05T01:50:14.707Z,-3.44
2023-05-05T01:51:13.923Z,-3.5
2023-05-05T01:52:14.332Z,-3.46
2023-05-05T01:53:14.687Z,-3.47
2023-05-05T01:54:15.041Z,-3.43
2023-05-05T01:55:14.655Z,-3.47
2023-05-05T01:56:14.074Z,-3.56
2023-05-05T01:57:14.187Z,-3.62
2023-05-05T01:58:14.726Z,-3.62
2023-05-05T01:59:13.549Z,-3.65
2023-05-05T02:00:14.634Z,-3.5
2023-05-05T02:01:14.203Z,-3.67
2023-05-05T02:02:15.313Z,-3.62
2023-05-05T02:03:14.418Z,-3.72
2023-05-05T02:04:14.758Z,-3.79
2023-05-05T02:05:14.464Z,-3.68
2023-05-05T02:06:14.664Z,-3.47
2023-05-05T02:07:14.333Z,-3.23
2023-05-05T02:08:13.939Z,-3.19
2023-05-05T02:09:13.940Z,-3.09
2023-05-05T02:10:14.318Z,-3
2023-05-05T02:11:13.857Z,-3.05
2023-05-05T02:12:14.208Z,-3.21
2023-05-05T02:13:13.932Z,-3.29
2023-05-05T02:14:13.948Z,-3.27
2023-05-05T02:15:14.579Z,-3.38
2023-05-05T02:16:13.725Z,-3.32
2023-05-05T02:17:15.848Z,-3.38
2023-05-05T02:18:14.078Z,-3.38
2023-05-05T02:19:14.736Z,-3.48
2023-05-05T02:20:14.433Z,-3.52
2023-05-05T02:21:14.115Z,-3.6
2023-05-05T02:22:13.913Z,-3.5
2023-05-05T02:23:14.004Z,-3.35
2023-05-05T02:24:13.718Z,-3.49
2023-05-05T02:25:13.782Z,-3.54
2023-05-05T02:26:15.801Z,-3.43
2023-05-05T02:27:15.779Z,-3.58
2023-05-05T02:29:19.487Z,-3.51
2023-05-05T02:30:19.523Z,-3.51
2023-05-05T02:31:19.999Z,-3.56
2023-05-05T02:32:26.523Z,-3.58
2023-05-05T02:33:21.060Z,-3.58
2023-05-05T02:34:22.010Z,-3.62
2023-05-05T02:35:20.680Z,-3.7
2023-05-05T02:36:19.867Z,-3.67
2023-05-05T02:37:21.300Z,-3.63
2023-05-05T02:38:18.454Z,-3.6
2023-05-05T02:39:21.599Z,-3.53
2023-05-05T02:40:22.256Z,-3.48
2023-05-05T02:41:20.058Z,-3.46
2023-05-05T02:42:20.197Z,-3.47
2023-05-05T02:43:20.878Z,-3.46
2023-05-05T02:44:19.658Z,-3.4
2023-05-05T02:45:20.427Z,-3.28
2023-05-05T02:46:19.003Z,-3.4
2023-05-05T02:47:20.242Z,-3.44
2023-05-05T02:48:19.112Z,-3.51
2023-05-05T02:49:19.408Z,-3.55
2023-05-05T02:50:19.141Z,-3.32
2023-05-05T02:51:18.976Z,-3.2
2023-05-05T02:52:19.130Z,-3.32
2023-05-05T02:53:23.148Z,-3.31
2023-05-05T02:54:19.641Z,-3.18
2023-05-05T02:55:19.625Z,-3.27
2023-05-05T02:57:25.203Z,-3.37
2023-05-05T03:03:46.634Z,-3.35
2023-05-05T03:04:50.236Z,-3.29
2023-05-05T03:05:53.559Z,-3.18
2023-05-05T03:06:53.553Z,-3.15
2023-05-05T03:08:00.361Z,-3.02
2023-05-05T03:11:59.506Z,-3.06
2023-05-05T03:12:58.314Z,-2.99
2023-05-05T03:13:58.957Z,-3.06
2023-05-05T03:14:57.997Z,-3
2023-05-05T03:15:56.602Z,-2.96
2023-05-05T03:16:56.348Z,-2.98
2023-05-05T03:17:56.401Z,-2.93
2023-05-05T03:18:57.001Z,-2.93
2023-05-05T03:19:56.425Z,-2.84
2023-05-05T03:20:56.398Z,-2.95
2023-05-05T03:21:56.201Z,-3
2023-05-05T03:22:56.116Z,-2.91
2023-05-05T03:23:56.828Z,-2.69
2023-05-05T03:24:55.908Z,-2.7
2023-05-05T03:25:56.090Z,-2.65
2023-05-05T03:26:56.169Z,-2.59
2023-05-05T03:27:55.917Z,-2.55
2023-05-05T03:28:55.907Z,-2.61
2023-05-05T03:29:56.154Z,-2.65
2023-05-05T03:30:56.482Z,-2.52
2023-05-05T03:31:56.180Z,-2.47
2023-05-05T03:32:55.986Z,-2.48
2023-05-05T03:33:55.990Z,-2.49
2023-05-05T03:34:56.282Z,-2.46
2023-05-05T03:35:56.068Z,-2.44
2023-05-05T03:36:56.041Z,-2.44
2023-05-05T03:37:56.203Z,-2.45
2023-05-05T03:38:56.313Z,-2.45
2023-05-05T03:39:56.067Z,-2.43
2023-05-05T03:40:56.135Z,-2.41
2023-05-05T03:41:56.090Z,-2.41
2023-05-05T03:42:56.100Z,-2.39
2023-05-05T03:43:56.675Z,-2.41
2023-05-05T03:44:56.672Z,-2.39
2023-05-05T03:45:56.732Z,-2.43
2023-05-05T03:46:56.730Z,-2.41
2023-05-05T03:47:56.689Z,-2.4
2023-05-05T03:48:56.730Z,-2.33
2023-05-05T03:49:56.719Z,-2.3
2023-05-05T03:50:56.943Z,-2.34
2023-05-05T03:51:56.749Z,-2.29
2023-05-05T03:52:56.776Z,-2.31
2023-05-05T03:53:56.786Z,-2.26
2023-05-05T03:54:56.769Z,-2.26
2023-05-05T03:55:56.819Z,-2.25
2023-05-05T03:56:56.856Z,-2.18
2023-05-05T03:57:56.860Z,-2.21
2023-05-05T03:58:56.836Z,-2.16
2023-05-05T03:59:56.848Z,-2.17
2023-05-05T04:00:57.122Z,-2.17
2023-05-05T04:01:57.177Z,-2.15
2023-05-05T04:02:57.191Z,-2.11
2023-05-05T04:03:57.065Z,-2.06
2023-05-05T04:04:56.950Z,-2.03
2023-05-05T04:05:56.966Z,-1.97
2023-05-05T04:06:57.001Z,-2
2023-05-05T04:07:57.010Z,-1.97
2023-05-05T04:08:56.992Z,-1.98
2023-05-05T04:09:57.000Z,-2.02
2023-05-05T04:10:57.266Z,-1.96
2023-05-05T04:11:59.186Z,-1.85
2023-05-05T04:12:57.184Z,-1.81
2023-05-05T04:13:57.062Z,-1.81
2023-05-05T04:14:57.073Z,-1.81
2023-05-05T04:15:57.100Z,-1.83
2023-05-05T04:16:57.107Z,-1.74
2023-05-05T04:17:57.354Z,-1.76
2023-05-05T04:18:57.361Z,-1.68
2023-05-05T04:19:57.182Z,-1.64
2023-05-05T04:20:57.176Z,-1.59
2023-05-05T04:21:57.226Z,-1.5
2023-05-05T04:22:57.228Z,-1.44
2023-05-05T04:23:57.214Z,-1.49
2023-05-05T04:24:57.204Z,-1.37
2023-05-05T04:25:57.235Z,-1.36
2023-05-05T04:26:57.489Z,-1.39
2023-05-05T04:27:57.269Z,-1.37
2023-05-05T04:28:57.661Z,-1.35
2023-05-05T04:29:57.506Z,-1.43
2023-05-05T04:30:57.502Z,-1.42
2023-05-05T04:31:57.350Z,-1.39
2023-05-05T04:32:57.374Z,-1.4
2023-05-05T04:33:57.406Z,-1.31
2023-05-05T04:34:57.663Z,-1.26
2023-05-05T04:35:57.388Z,-1.27
2023-05-05T04:36:57.433Z,-1.19
2023-05-05T04:37:57.424Z,-1.09
2023-05-05T04:38:57.496Z,-1.12
2023-05-05T04:39:57.525Z,-1.06
2023-05-05T04:40:57.498Z,-1.12
2023-05-05T04:41:57.494Z,-1.11
2023-05-05T04:42:57.681Z,-1
2023-05-05T04:43:57.546Z,-0.92
2023-05-05T04:44:57.560Z,-0.8
2023-05-05T04:45:57.549Z,-0.75
2023-05-05T04:46:57.721Z,-0.75
2023-05-05T04:47:57.595Z,-0.66
2023-05-05T04:48:58.857Z,-0.73
2023-05-05T04:49:57.635Z,-0.64
2023-05-05T04:50:57.630Z,-0.6
2023-05-05T04:51:57.837Z,-0.58
2023-05-05T04:52:57.622Z,-0.57
2023-05-05T04:53:58.058Z,-0.52
2023-05-05T04:54:57.722Z,-0.52
2023-05-05T04:55:59.169Z,-0.51
2023-05-05T04:56:57.754Z,-0.48
2023-05-05T04:57:57.989Z,-0.4
2023-05-05T04:58:57.984Z,-0.3
2023-05-05T04:59:58.009Z,-0.25
2023-05-05T05:00:57.789Z,-0.15
2023-05-05T05:01:57.822Z,-0.07
2023-05-05T05:02:58.081Z,-0.05
2023-05-05T05:03:57.913Z,-0.01
2023-05-05T05:04:58.755Z,-0.06
2023-05-05T05:05:57.870Z,0.04
2023-05-05T05:06:59.328Z,0.21
2023-05-05T05:07:58.067Z,0.23
2023-05-05T05:08:57.924Z,0.22
2023-05-05T05:09:58.176Z,0.31
2023-05-05T05:10:58.708Z,0.38
2023-05-05T05:12:01.191Z,0.34
2023-05-05T05:12:57.989Z,0.53
2023-05-05T05:13:57.981Z,0.55
2023-05-05T05:14:58.030Z,0.6
2023-05-05T05:15:58.065Z,0.71
2023-05-05T05:16:58.062Z,0.75
2023-05-05T05:17:58.096Z,0.7
2023-05-05T05:18:59.072Z,0.82
2023-05-05T05:19:58.104Z,0.74
2023-05-05T05:20:58.082Z,0.82
2023-05-05T05:21:58.103Z,0.91
2023-05-05T05:22:58.119Z,0.96
2023-05-05T05:23:58.098Z,1.22
2023-05-05T05:24:58.148Z,1.12
2023-05-05T05:25:58.167Z,1.04
2023-05-05T05:26:58.445Z,1.15
2023-05-05T05:28:08.932Z,1.09
2023-05-05T05:29:01.353Z,1.23
2023-05-05T05:30:01.413Z,1.17
2023-05-05T05:31:01.407Z,1.13
2023-05-05T05:32:01.545Z,1.27
2023-05-05T05:33:01.431Z,1.5
2023-05-05T05:34:01.480Z,1.36
2023-05-05T05:35:01.489Z,1.34
2023-05-05T05:36:01.467Z,1.18
2023-05-05T05:37:01.526Z,1.36
2023-05-05T05:38:01.741Z,1.43
2023-05-05T05:39:01.507Z,1.47
2023-05-05T05:40:01.575Z,1.61
2023-05-05T05:41:04.727Z,1.66
2023-05-05T05:42:01.596Z,1.68
2023-05-05T05:43:01.615Z,1.43
2023-05-05T05:44:01.770Z,1.57
2023-05-05T05:45:01.604Z,1.76
2023-05-05T05:46:01.709Z,1.75
2023-05-05T05:47:01.657Z,1.81
2023-05-05T05:48:01.751Z,1.63
2023-05-05T05:49:01.651Z,1.79
2023-05-05T05:50:01.908Z,1.66
2023-05-05T05:51:01.710Z,1.67
2023-05-05T05:52:01.910Z,1.65
2023-05-05T05:53:01.758Z,1.75
2023-05-05T05:54:01.767Z,1.61
2023-05-05T05:55:02.070Z,1.74
2023-05-05T05:56:01.830Z,2.09
2023-05-05T05:57:01.811Z,1.95
2023-05-05T05:58:02.054Z,1.99
2023-05-05T05:59:01.855Z,2.03
2023-05-05T06:00:02.230Z,2.17
2023-05-05T06:01:01.895Z,2.23
2023-05-05T06:02:02.048Z,2.17
2023-05-05T06:03:02.048Z,2.33
2023-05-05T06:04:01.980Z,2.18
2023-05-05T06:05:01.952Z,2.09
2023-05-05T06:06:02.015Z,2.22
2023-05-05T06:07:02.072Z,2.37
2023-05-05T06:08:02.000Z,2.27
2023-05-05T06:09:02.037Z,2.23
2023-05-05T06:10:14.465Z,2.24
2023-05-05T06:11:05.713Z,2.27
2023-05-05T06:12:06.248Z,2.48
2023-05-05T06:13:05.776Z,2.57
2023-05-05T06:14:05.735Z,2.59
2023-05-05T06:15:06.392Z,2.66
2023-05-05T06:16:06.312Z,2.72
2023-05-05T06:17:05.756Z,2.62
2023-05-05T06:18:05.897Z,2.65
2023-05-05T06:19:05.825Z,2.68
2023-05-05T06:20:07.022Z,2.67
2023-05-05T06:21:05.916Z,2.65
2023-05-05T06:22:05.926Z,2.58
2023-05-05T06:23:06.597Z,2.63
2023-05-05T06:24:06.445Z,2.75
2023-05-05T06:25:06.447Z,2.94
2023-05-05T06:26:06.108Z,2.91
2023-05-05T06:27:06.185Z,2.95
2023-05-05T06:28:06.058Z,3
2023-05-05T06:29:06.006Z,3.01
2023-05-05T06:30:07.013Z,3.14
2023-05-05T06:31:06.022Z,3.14
2023-05-05T06:32:06.068Z,3.22
2023-05-05T06:33:06.085Z,3.22
2023-05-05T06:34:06.380Z,3.11
2023-05-05T06:35:06.626Z,3.5
2023-05-05T06:36:06.144Z,3.09
2023-05-05T06:37:06.083Z,3.23
2023-05-05T06:38:06.118Z,3.03
2023-05-05T06:39:06.152Z,3.26
2023-05-05T06:40:07.274Z,3.53
2023-05-05T06:41:06.229Z,3.59
2023-05-05T06:42:06.189Z,3.57
2023-05-05T06:43:06.176Z,3.32
2023-05-05T06:44:06.235Z,3.37
2023-05-05T06:45:06.826Z,3.5
2023-05-05T06:46:06.251Z,3.75
2023-05-05T06:47:06.704Z,3.84
2023-05-05T06:48:06.370Z,3.61
2023-05-05T06:49:06.349Z,3.29
2023-05-05T06:50:07.560Z,3.5
2023-05-05T06:51:06.651Z,3.59
2023-05-05T06:52:06.429Z,3.68
2023-05-05T06:53:06.384Z,3.61
2023-05-05T06:54:06.633Z,3.6
2023-05-05T06:55:07.174Z,3.51
2023-05-05T06:56:06.958Z,3.41
2023-05-05T06:57:06.474Z,3.57
2023-05-05T06:58:06.428Z,3.77
2023-05-05T06:59:06.455Z,3.93
2023-05-05T07:00:07.364Z,3.8
2023-05-05T07:01:06.588Z,3.82
2023-05-05T07:02:06.487Z,3.88
2023-05-05T07:03:06.631Z,3.79
2023-05-05T07:04:07.052Z,3.85
2023-05-05T07:05:07.124Z,4.04
2023-05-05T07:06:06.659Z,3.87
2023-05-05T07:07:06.592Z,3.61
2023-05-05T07:08:06.579Z,4.12
2023-05-05T07:09:06.584Z,3.86
2023-05-05T07:10:07.600Z,4.02
2023-05-05T07:11:06.643Z,4.14
2023-05-05T07:12:07.149Z,4.05
2023-05-05T07:13:07.102Z,4.08
2023-05-05T07:14:06.715Z,4.43
2023-05-05T07:15:23.486Z,4.48
2023-05-05T07:16:08.041Z,4.54
2023-05-05T07:17:07.887Z,4.34
2023-05-05T07:18:07.916Z,4.29
2023-05-05T07:19:07.890Z,3.93
2023-05-05T07:20:08.974Z,4.37
2023-05-05T07:21:07.906Z,4.31
2023-05-05T07:22:07.942Z,4.49
2023-05-05T07:23:07.969Z,4.37
2023-05-05T07:24:08.668Z,4.17
2023-05-05T07:25:08.396Z,4.42
2023-05-05T07:26:08.034Z,3.94
2023-05-05T07:27:08.248Z,3.7
2023-05-05T07:28:08.050Z,4.04
2023-05-05T07:29:08.300Z,3.72
2023-05-05T07:30:13.258Z,3.4
2023-05-05T07:31:10.501Z,3.61
2023-05-05T07:32:10.549Z,3.74
2023-05-05T07:33:10.772Z,4
2023-05-05T07:34:10.515Z,4.01
2023-05-05T07:35:10.577Z,4.29
2023-05-05T07:36:10.571Z,4.34
2023-05-05T07:37:10.804Z,4.2
2023-05-05T07:38:10.986Z,4.08
2023-05-05T07:39:10.598Z,4.29
2023-05-05T07:40:11.545Z,4.04
2023-05-05T07:41:10.620Z,3.84
2023-05-05T07:42:10.623Z,3.76
2023-05-05T07:43:10.662Z,3.6
2023-05-05T07:44:10.664Z,3.67
2023-05-05T07:45:11.356Z,3.69
2023-05-05T07:46:10.756Z,3.79
2023-05-05T07:47:10.697Z,3.96
2023-05-05T07:48:10.866Z,4.09
2023-05-05T07:49:10.722Z,4.26
2023-05-05T07:50:11.408Z,4.55
2023-05-05T07:51:10.809Z,4.49
2023-05-05T07:52:10.810Z,4.08
2023-05-05T07:53:14.952Z,4.54
2023-05-05T07:54:11.767Z,4.65
2023-05-05T07:55:11.785Z,4.47
2023-05-05T07:56:11.456Z,4.6
2023-05-05T07:57:11.451Z,4.84
2023-05-05T07:58:11.513Z,4.75
2023-05-05T07:59:11.629Z,4.32
2023-05-05T08:00:12.234Z,4.19
2023-05-05T08:01:11.542Z,4.15
2023-05-05T08:02:11.560Z,4.32
2023-05-05T08:03:12.286Z,4.59
2023-05-05T08:04:11.663Z,5
2023-05-05T08:05:11.703Z,4.73
2023-05-05T08:06:11.620Z,4.54
2023-05-05T08:07:11.636Z,4.34
2023-05-05T08:08:11.623Z,4.34
2023-05-05T08:09:11.624Z,4.52
2023-05-05T08:10:11.997Z,4.47
2023-05-05T08:11:11.687Z,4.4
2023-05-05T08:12:11.680Z,4.43
2023-05-05T08:13:11.764Z,4.24
2023-05-05T08:14:11.708Z,4.3
2023-05-05T08:15:11.981Z,3.76
2023-05-05T08:16:12.129Z,3.35
2023-05-05T08:17:11.946Z,3.16
2023-05-05T08:18:11.798Z,3.25
2023-05-05T08:19:24.929Z,2.94
2023-05-05T08:20:15.342Z,2.52
2023-05-05T08:21:14.739Z,2.15
2023-05-05T08:22:14.814Z,1.95
2023-05-05T08:23:14.774Z,1.72
2023-05-05T08:24:14.887Z,1.52
2023-05-05T08:25:14.866Z,1.37
2023-05-05T08:26:14.903Z,1.14
2023-05-05T08:27:15.033Z,1.06
2023-05-05T08:28:14.910Z,1.1
2023-05-05T08:29:15.095Z,1.18
2023-05-05T08:30:15.195Z,1.36
2023-05-05T08:31:15.171Z,1.6
2023-05-05T08:32:15.120Z,1.7
2023-05-05T08:33:15.241Z,1.75
2023-05-05T08:34:15.010Z,1.82
2023-05-05T08:35:15.043Z,1.73
2023-05-05T08:36:15.074Z,1.81
2023-05-05T08:37:15.043Z,1.93
2023-05-05T08:38:15.024Z,1.95
2023-05-05T08:39:15.033Z,2.11
2023-05-05T08:40:15.232Z,2.34
2023-05-05T08:41:17.201Z,2.39
2023-05-05T08:42:25.469Z,2.58
2023-05-05T08:43:20.278Z,2.63
2023-05-05T08:44:19.904Z,2.4
2023-05-05T08:45:20.072Z,2.55
2023-05-05T08:46:19.969Z,2.95
2023-05-05T08:47:20.118Z,2.98
2023-05-05T08:48:23.030Z,3.31
2023-05-05T08:49:20.205Z,3.88
2023-05-05T08:50:23.237Z,4
2023-05-05T08:51:20.565Z,3.53
2023-05-05T08:52:22.868Z,3.76
2023-05-05T08:53:26.191Z,3.85
2023-05-05T08:54:27.204Z,4.16
2023-05-05T08:55:24.976Z,4.91
2023-05-05T08:56:31.306Z,4.66
2023-05-05T08:57:32.248Z,5.13
2023-05-05T08:58:30.311Z,5.01
2023-05-05T08:59:30.116Z,4.6
2023-05-05T09:00:29.191Z,4.89
2023-05-05T09:01:29.910Z,5.44
2023-05-05T09:02:29.342Z,5.8
2023-05-05T09:03:29.645Z,5.14
2023-05-05T09:04:29.004Z,4.65
2023-05-05T09:05:29.219Z,4.15
2023-05-05T09:06:29.563Z,4.11
2023-05-05T09:07:29.466Z,4.19
2023-05-05T09:08:29.149Z,3.96
2023-05-05T09:09:29.336Z,3.92
2023-05-05T09:10:30.277Z,3.89
2023-05-05T09:11:29.185Z,3.9
2023-05-05T09:12:30.817Z,3.75
2023-05-05T09:13:30.102Z,3.85
2023-05-05T09:14:29.181Z,3.75
2023-05-05T09:15:29.217Z,3.65
2023-05-05T09:16:29.245Z,3.73
2023-05-05T09:17:29.466Z,3.48
2023-05-05T09:18:29.444Z,3.34
2023-05-05T09:19:29.272Z,3.38
2023-05-05T09:20:36.318Z,3.4
2023-05-05T09:21:33.047Z,3.22
2023-05-05T09:22:36.817Z,3.54
2023-05-05T09:23:33.887Z,3.9
2023-05-05T09:24:33.676Z,3.81
2023-05-05T09:25:33.814Z,3.69
2023-05-05T09:26:34.390Z,3.52
2023-05-05T09:27:37.621Z,3.81
2023-05-05T09:28:34.620Z,3.98
2023-05-05T09:29:34.612Z,3.81
2023-05-05T09:30:35.044Z,3.75
2023-05-05T09:31:35.047Z,3.71
2023-05-05T09:32:47.299Z,3.42
2023-05-05T09:33:39.089Z,3.4
2023-05-05T09:34:39.308Z,3.29
2023-05-05T09:35:49.001Z,3.29
2023-05-05T09:36:41.492Z,3.33
2023-05-05T09:37:40.907Z,3.45
2023-05-05T09:38:40.925Z,3.52
2023-05-05T09:39:53.011Z,3.56
2023-05-05T09:40:46.127Z,3.64
2023-05-05T09:41:45.211Z,4.04
2023-05-05T09:42:45.088Z,4.17
2023-05-05T09:43:51.528Z,4.08
2023-05-05T09:44:48.387Z,4.29
2023-05-05T09:45:48.756Z,4.56
2023-05-05T09:46:51.774Z,4.97
2023-05-05T09:47:48.780Z,4.81
2023-05-05T09:48:48.631Z,4.91
2023-05-05T09:49:58.246Z,5.08
2023-05-05T09:50:49.953Z,5.52
2023-05-05T09:51:49.935Z,5.53
2023-05-05T09:52:59.487Z,5.8
2023-05-05T09:53:51.223Z,5.14
2023-05-05T09:54:54.946Z,5.3
2023-05-05T09:55:55.453Z,5.66
2023-05-05T09:56:52.118Z,5.94
2023-05-05T09:57:52.522Z,5.56
2023-05-05T09:59:54.609Z,5.27
2023-05-05T10:00:55.041Z,5.09
2023-05-05T10:03:02.450Z,4.99
2023-05-05T10:03:59.198Z,5.42
2023-05-05T10:05:11.935Z,5.07
2023-05-05T10:06:03.604Z,5.91
2023-05-05T10:07:03.586Z,6.07
2023-05-05T10:08:11.864Z,5.75
2023-05-05T10:09:08.537Z,5.83
2023-05-05T10:10:13.259Z,5.58
2023-05-05T10:11:12.667Z,5.74
2023-05-05T10:12:10.253Z,5.96
2023-05-05T10:13:10.936Z,5.54
2023-05-05T10:14:12.759Z,5.61
2023-05-05T10:15:10.603Z,5.33
2023-05-05T10:16:11.239Z,4.77
2023-05-05T10:17:10.712Z,4.53
2023-05-05T10:18:10.303Z,4.56
2023-05-05T10:19:11.417Z,4.65
2023-05-05T10:20:12.750Z,4.58
2023-05-05T10:21:12.447Z,4.32
2023-05-05T10:22:10.542Z,4.18
2023-05-05T10:23:12.955Z,4.18
2023-05-05T10:24:16.054Z,4.05
2023-05-05T10:25:13.998Z,4.07
2023-05-05T10:26:13.815Z,4.06
2023-05-05T10:27:17.233Z,4.08
2023-05-05T10:28:16.878Z,4.03
2023-05-05T10:29:16.798Z,4.08
2023-05-05T10:30:20.605Z,4.13
2023-05-05T10:31:25.898Z,4.03
2023-05-05T10:34:29.833Z,4.23
2023-05-05T10:35:27.704Z,4.39
2023-05-05T10:36:26.581Z,4.63
2023-05-05T10:37:27.211Z,4.66
2023-05-05T10:38:28.681Z,4.7
2023-05-05T10:39:26.301Z,4.6
2023-05-05T10:40:26.624Z,4.53
2023-05-05T10:41:26.213Z,4.54
2023-05-05T10:42:26.197Z,4.54
2023-05-05T10:43:27.562Z,4.67
2023-05-05T10:44:27.441Z,4.51
2023-05-05T10:45:26.554Z,4.5
2023-05-05T10:46:26.944Z,4.48
2023-05-05T10:47:27.683Z,4.64
2023-05-05T10:50:36.228Z,4.68
2023-05-05T10:51:41.375Z,4.82
2023-05-05T10:53:44.343Z,5.18
2023-05-05T10:55:43.674Z,4.99
2023-05-05T10:56:40.530Z,5.27
2023-05-05T10:57:41.051Z,4.98
2023-05-05T10:58:51.321Z,5.15
2023-05-05T10:59:42.941Z,4.94
2023-05-05T11:00:51.819Z,4.98
2023-05-05T11:01:43.741Z,4.87
2023-05-05T11:02:43.688Z,4.99
2023-05-05T11:03:43.657Z,5.09
2023-05-05T11:04:43.617Z,5.1
2023-05-05T11:07:53.115Z,4.83
2023-05-05T11:08:55.769Z,5.06
2023-05-05T11:09:54.464Z,5.08
2023-05-05T11:10:52.794Z,5.23
2023-05-05T11:12:02.667Z,5.1
2023-05-05T11:16:01.771Z,4.59
2023-05-05T11:17:02.023Z,4.28
2023-05-05T11:18:05.736Z,4.48
2023-05-05T11:20:05.492Z,4.62
2023-05-05T11:22:06.460Z,3.93
2023-05-05T11:26:12.716Z,4.22
2023-05-05T11:27:12.031Z,4.39
2023-05-05T11:28:16.731Z,4.39
2023-05-05T11:29:13.763Z,4.43
2023-05-05T11:30:14.211Z,4.43
2023-05-05T11:31:16.671Z,4.66
2023-05-05T11:32:14.454Z,4.52
2023-05-05T11:35:15.707Z,4.48
2023-05-05T11:36:16.301Z,4.26
2023-05-05T11:37:15.737Z,4.16
2023-05-05T11:38:17.556Z,4.2
2023-05-05T11:39:22.905Z,4.37
2023-05-05T11:40:28.146Z,4.38
2023-05-05T11:42:26.809Z,4.36
2023-05-05T11:43:23.678Z,4.31
2023-05-05T11:44:30.407Z,4.44
2023-05-05T11:45:27.125Z,4.4
2023-05-05T11:46:27.261Z,4.48
2023-05-05T11:47:27.912Z,4.59
2023-05-05T11:48:27.164Z,4.84
2023-05-05T11:49:27.708Z,4.99
2023-05-05T11:50:27.388Z,4.91
2023-05-05T11:51:28.236Z,4.83
2023-05-05T11:52:27.241Z,4.85
2023-05-05T11:53:27.437Z,4.69
2023-05-05T11:54:27.611Z,4.62
2023-05-05T11:55:27.308Z,4.75
2023-05-05T11:56:27.242Z,4.81
2023-05-05T11:57:28.268Z,5.36
2023-05-05T11:58:27.277Z,5.52
2023-05-05T11:59:27.654Z,5.53
2023-05-05T12:00:33.595Z,5.38
2023-05-05T12:01:30.429Z,5.04
2023-05-05T12:02:30.611Z,4.88
2023-05-05T12:03:34.286Z,5.05
2023-05-05T12:04:31.315Z,5.43
2023-05-05T12:05:31.577Z,5.47
2023-05-05T12:06:33.971Z,5.34
2023-05-05T12:07:32.218Z,5.22
2023-05-05T12:08:40.371Z,5.39
2023-05-05T12:09:32.422Z,5.45
2023-05-05T12:10:32.116Z,5.96
2023-05-05T12:11:32.285Z,6.52
2023-05-05T12:12:36.145Z,6.45
2023-05-05T12:13:33.100Z,6.56
2023-05-05T12:14:32.966Z,5.93
2023-05-05T12:15:33.163Z,5.98
2023-05-05T12:16:33.204Z,5.6
2023-05-05T12:17:42.797Z,5.31
2023-05-05T12:18:34.931Z,5.05
2023-05-05T12:19:35.576Z,5.1
2023-05-05T12:20:34.826Z,4.97
2023-05-05T12:21:35.105Z,5.21
2023-05-05T12:22:35.098Z,4.98
2023-05-05T12:23:38.457Z,4.86
2023-05-05T12:24:35.177Z,4.89
2023-05-05T12:25:35.802Z,5.02
2023-05-05T12:26:35.144Z,4.98
2023-05-05T12:27:35.523Z,5.12
2023-05-05T12:28:44.421Z,5.07
2023-05-05T12:29:36.850Z,5.25
2023-05-05T12:30:36.419Z,5.66
2023-05-05T12:31:40.381Z,5.41
2023-05-05T12:32:37.256Z,6.01
2023-05-05T12:33:40.162Z,6.06
2023-05-05T12:34:37.354Z,5.7
2023-05-05T12:35:37.351Z,5.79
2023-05-05T12:36:38.076Z,5.94
2023-05-05T12:37:37.771Z,6.47
2023-05-05T12:38:37.546Z,6.3
2023-05-05T12:39:37.365Z,5.87
2023-05-05T12:40:47.264Z,5.53
2023-05-05T12:41:39.299Z,5.22
2023-05-05T12:42:39.247Z,5
2023-05-05T12:43:39.059Z,4.94
2023-05-05T12:44:39.796Z,4.93
2023-05-05T12:45:39.266Z,5.1
2023-05-05T12:46:45.625Z,5.07
2023-05-05T12:47:42.299Z,5
2023-05-05T12:48:42.359Z,4.88
2023-05-05T12:49:46.339Z,5.01
2023-05-05T12:50:43.087Z,5.03
2023-05-05T12:51:52.820Z,5.05
2023-05-05T12:52:44.736Z,5.15
2023-05-05T12:53:45.300Z,5.07
2023-05-05T12:55:46.117Z,5.15
2023-05-05T12:56:46.989Z,4.89
2023-05-05T12:57:58.703Z,5.1
2023-05-05T12:58:50.386Z,5.25
2023-05-05T12:59:51.030Z,5.89
2023-05-05T13:01:55.780Z,5.38
2023-05-05T13:02:54.864Z,5.57
2023-05-05T13:04:56.586Z,5.52
2023-05-05T13:05:56.759Z,5.78
2023-05-05T13:07:59.055Z,4.88
2023-05-05T13:08:59.014Z,4.98
2023-05-05T13:10:08.821Z,4.82
2023-05-05T13:11:00.762Z,4.52
2023-05-05T13:12:01.038Z,4.34
2023-05-05T13:13:00.808Z,4.5
2023-05-05T13:14:00.815Z,4.6
2023-05-05T13:15:00.802Z,4.78
2023-05-05T13:16:00.983Z,4.69
2023-05-05T13:17:00.863Z,4.6
2023-05-05T13:18:01.005Z,4.64
2023-05-05T13:19:00.861Z,4.91
2023-05-05T13:20:00.944Z,4.81
2023-05-05T13:21:01.084Z,4.69
2023-05-05T13:22:00.899Z,4.65
2023-05-05T13:23:00.883Z,4.5
2023-05-05T13:24:16.226Z,4.54
2023-05-05T13:25:02.326Z,4.74
2023-05-05T13:26:02.339Z,4.72
2023-05-05T13:27:02.570Z,4.66
2023-05-05T13:28:02.168Z,4.58
2023-05-05T13:29:02.193Z,4.73
2023-05-05T13:30:02.519Z,4.89
2023-05-05T13:31:02.327Z,4.74
2023-05-05T13:32:02.478Z,4.75
2023-05-05T13:33:02.690Z,4.73
2023-05-05T13:34:02.245Z,4.78
2023-05-05T13:35:02.287Z,4.7
2023-05-05T13:36:02.914Z,4.88
2023-05-05T13:37:02.953Z,4.91
2023-05-05T13:38:02.985Z,4.85
2023-05-05T13:39:03.225Z,4.87
2023-05-05T13:40:03.587Z,4.67
2023-05-05T13:41:03.060Z,4.82
2023-05-05T13:42:03.068Z,4.99
2023-05-05T13:43:03.053Z,4.8
2023-05-05T13:44:03.069Z,4.75
2023-05-05T13:45:03.602Z,4.6
2023-05-05T13:46:18.801Z,4.83
2023-05-05T13:47:06.668Z,4.86
2023-05-05T13:48:07.223Z,4.98
2023-05-05T13:49:06.621Z,4.87
2023-05-05T13:50:07.225Z,4.83
2023-05-05T13:51:06.866Z,4.87
2023-05-05T13:52:06.672Z,4.95
2023-05-05T13:53:06.713Z,4.69
2023-05-05T13:54:07.130Z,4.75
2023-05-05T13:55:07.559Z,4.68
2023-05-05T13:56:07.154Z,4.78
2023-05-05T13:57:06.954Z,4.69
2023-05-05T13:58:06.762Z,4.5
2023-05-05T13:59:06.799Z,4.44
2023-05-05T14:00:07.796Z,4.41
2023-05-05T14:01:06.818Z,4.58
2023-05-05T14:02:06.875Z,4.45
2023-05-05T14:03:06.842Z,4.44
2023-05-05T14:04:07.294Z,4.47
2023-05-05T14:05:07.713Z,4.34
2023-05-05T14:06:07.476Z,4.53
2023-05-05T14:07:06.865Z,4.62
2023-05-05T14:08:06.850Z,4.61
2023-05-05T14:09:06.893Z,4.47
2023-05-05T14:10:07.467Z,4.55
2023-05-05T14:11:06.928Z,4.93
2023-05-05T14:12:06.988Z,4.99
2023-05-05T14:13:06.994Z,4.81
2023-05-05T14:14:07.138Z,4.94